sensor_id;sensor_type;location;lat;lon;timestamp;P1;durP1;ratioP1;P2;durP2;ratioP2
70549;SDS011;58101;48.658;2.328;2022-07-29T00:00:37;7.88;;;2.50;;
70549;SDS011;58101;48.658;2.328;2022-07-29T00:03:03;7.45;;;2.42;;
70549;SDS011;58101;48.658;2.328;2022-07-29T00:05:29;7.80;;;2.60;;
70549;SDS011;58101;48.658;2.328;2022-07-29T00:07:56;7.13;;;2.42;;
70549;SDS011;58101;48.658;2.328;2022-07-29T00:10:21;6.68;;;2.50;;
70549;SDS011;58101;48.658;2.328;2022-07-29T00:12:48;6.40;;;2.42;;
70549;SDS011;58101;48.658;2.328;2022-07-29T00:15:13;7.10;;;2.42;;
70549;SDS011;58101;48.658;2.328;2022-07-29T00:17:39;10.30;;;2.70;;
70549;SDS011;58101;48.658;2.328;2022-07-29T00:20:05;7.93;;;2.85;;
70549;SDS011;58101;48.658;2.328;2022-07-29T00:24:57;7.72;;;2.47;;
70549;SDS011;58101;48.658;2.328;2022-07-29T00:27:22;7.95;;;2.38;;
70549;SDS011;58101;48.658;2.328;2022-07-29T00:29:48;9.43;;;2.42;;
70549;SDS011;58101;48.658;2.328;2022-07-29T00:32:14;7.10;;;2.53;;
70549;SDS011;58101;48.658;2.328;2022-07-29T00:34:39;7.72;;;2.40;;
70549;SDS011;58101;48.658;2.328;2022-07-29T00:37:24;8.52;;;2.60;;
70549;SDS011;58101;48.658;2.328;2022-07-29T00:39:49;8.02;;;2.63;;
70549;SDS011;58101;48.658;2.328;2022-07-29T00:42:15;8.10;;;2.42;;
70549;SDS011;58101;48.658;2.328;2022-07-29T00:44:41;6.82;;;2.33;;
70549;SDS011;58101;48.658;2.328;2022-07-29T00:47:07;7.40;;;2.33;;
70549;SDS011;58101;48.658;2.328;2022-07-29T00:49:34;6.95;;;2.45;;
70549;SDS011;58101;48.658;2.328;2022-07-29T00:52:04;8.45;;;2.92;;
70549;SDS011;58101;48.658;2.328;2022-07-29T00:54:31;8.60;;;2.80;;
70549;SDS011;58101;48.658;2.328;2022-07-29T00:56:58;7.32;;;2.30;;
70549;SDS011;58101;48.658;2.328;2022-07-29T00:59:25;9.70;;;2.80;;
70549;SDS011;58101;48.658;2.328;2022-07-29T01:01:52;7.32;;;2.85;;
70549;SDS011;58101;48.658;2.328;2022-07-29T01:06:44;7.35;;;2.40;;
70549;SDS011;58101;48.658;2.328;2022-07-29T01:09:10;8.02;;;2.65;;
70549;SDS011;58101;48.658;2.328;2022-07-29T01:11:36;7.85;;;2.42;;
70549;SDS011;58101;48.658;2.328;2022-07-29T01:14:02;8.70;;;2.40;;
70549;SDS011;58101;48.658;2.328;2022-07-29T01:16:35;7.13;;;2.30;;
70549;SDS011;58101;48.658;2.328;2022-07-29T01:25:06;7.70;;;2.60;;
70549;SDS011;58101;48.658;2.328;2022-07-29T01:30:42;8.32;;;2.33;;
70549;SDS011;58101;48.658;2.328;2022-07-29T01:33:10;7.95;;;2.70;;
70549;SDS011;58101;48.658;2.328;2022-07-29T01:36:00;8.77;;;2.50;;
70549;SDS011;58101;48.658;2.328;2022-07-29T01:38:30;8.35;;;2.58;;
70549;SDS011;58101;48.658;2.328;2022-07-29T01:41:03;8.32;;;2.60;;
70549;SDS011;58101;48.658;2.328;2022-07-29T01:43:34;8.00;;;2.40;;
70549;SDS011;58101;48.658;2.328;2022-07-29T01:46:06;7.65;;;2.55;;
70549;SDS011;58101;48.658;2.328;2022-07-29T01:48:37;7.95;;;2.42;;
70549;SDS011;58101;48.658;2.328;2022-07-29T01:54:02;8.90;;;2.70;;
70549;SDS011;58101;48.658;2.328;2022-07-29T01:56:43;8.25;;;2.45;;
70549;SDS011;58101;48.658;2.328;2022-07-29T01:59:10;7.78;;;2.30;;
70549;SDS011;58101;48.658;2.328;2022-07-29T02:01:37;5.93;;;2.22;;
70549;SDS011;58101;48.658;2.328;2022-07-29T02:04:06;7.55;;;2.90;;
70549;SDS011;58101;48.658;2.328;2022-07-29T02:06:34;7.75;;;2.65;;
70549;SDS011;58101;48.658;2.328;2022-07-29T02:09:03;7.25;;;2.80;;
70549;SDS011;58101;48.658;2.328;2022-07-29T02:11:31;7.63;;;2.50;;
70549;SDS011;58101;48.658;2.328;2022-07-29T02:13:58;6.25;;;2.35;;
70549;SDS011;58101;48.658;2.328;2022-07-29T02:16:26;9.65;;;2.65;;
70549;SDS011;58101;48.658;2.328;2022-07-29T02:18:54;5.63;;;2.13;;
70549;SDS011;58101;48.658;2.328;2022-07-29T02:21:23;8.05;;;2.40;;
70549;SDS011;58101;48.658;2.328;2022-07-29T02:23:54;7.93;;;2.50;;
70549;SDS011;58101;48.658;2.328;2022-07-29T02:26:24;7.65;;;2.60;;
70549;SDS011;58101;48.658;2.328;2022-07-29T02:28:52;7.03;;;2.60;;
70549;SDS011;58101;48.658;2.328;2022-07-29T02:31:21;7.18;;;2.53;;
70549;SDS011;58101;48.658;2.328;2022-07-29T02:33:50;7.50;;;2.58;;
70549;SDS011;58101;48.658;2.328;2022-07-29T02:36:17;6.60;;;2.50;;
70549;SDS011;58101;48.658;2.328;2022-07-29T02:38:47;7.13;;;2.45;;
70549;SDS011;58101;48.658;2.328;2022-07-29T02:41:20;7.25;;;2.72;;
70549;SDS011;58101;48.658;2.328;2022-07-29T02:43:53;8.75;;;2.67;;
70549;SDS011;58101;48.658;2.328;2022-07-29T02:46:31;8.20;;;2.58;;
70549;SDS011;58101;48.658;2.328;2022-07-29T02:49:09;7.50;;;2.60;;
70549;SDS011;58101;48.658;2.328;2022-07-29T02:51:55;8.68;;;2.40;;
70549;SDS011;58101;48.658;2.328;2022-07-29T02:54:37;10.43;;;3.15;;
70549;SDS011;58101;48.658;2.328;2022-07-29T02:57:08;7.28;;;2.45;;
70549;SDS011;58101;48.658;2.328;2022-07-29T02:59:45;7.82;;;2.67;;
70549;SDS011;58101;48.658;2.328;2022-07-29T03:02:13;11.00;;;2.72;;
70549;SDS011;58101;48.658;2.328;2022-07-29T03:04:40;7.88;;;2.70;;
70549;SDS011;58101;48.658;2.328;2022-07-29T03:07:08;7.03;;;2.72;;
70549;SDS011;58101;48.658;2.328;2022-07-29T03:09:35;7.80;;;2.60;;
70549;SDS011;58101;48.658;2.328;2022-07-29T03:12:03;7.38;;;2.70;;
70549;SDS011;58101;48.658;2.328;2022-07-29T03:14:30;8.75;;;3.00;;
70549;SDS011;58101;48.658;2.328;2022-07-29T03:16:56;8.52;;;3.00;;
70549;SDS011;58101;48.658;2.328;2022-07-29T03:19:23;9.35;;;3.20;;
70549;SDS011;58101;48.658;2.328;2022-07-29T03:21:49;9.68;;;3.72;;
70549;SDS011;58101;48.658;2.328;2022-07-29T03:24:24;8.85;;;3.42;;
70549;SDS011;58101;48.658;2.328;2022-07-29T03:26:51;7.72;;;3.15;;
70549;SDS011;58101;48.658;2.328;2022-07-29T03:29:17;8.75;;;3.50;;
70549;SDS011;58101;48.658;2.328;2022-07-29T03:31:43;7.82;;;3.40;;
70549;SDS011;58101;48.658;2.328;2022-07-29T03:34:08;8.57;;;3.53;;
70549;SDS011;58101;48.658;2.328;2022-07-29T03:36:34;8.75;;;3.63;;
70549;SDS011;58101;48.658;2.328;2022-07-29T03:39:00;11.40;;;4.03;;
70549;SDS011;58101;48.658;2.328;2022-07-29T03:43:52;11.32;;;4.40;;
70549;SDS011;58101;48.658;2.328;2022-07-29T03:46:20;11.57;;;4.95;;
70549;SDS011;58101;48.658;2.328;2022-07-29T03:48:50;14.98;;;4.95;;
70549;SDS011;58101;48.658;2.328;2022-07-29T03:51:21;13.57;;;5.05;;
70549;SDS011;58101;48.658;2.328;2022-07-29T03:53:46;13.13;;;4.43;;
70549;SDS011;58101;48.658;2.328;2022-07-29T03:56:12;11.05;;;4.88;;
70549;SDS011;58101;48.658;2.328;2022-07-29T03:58:41;13.77;;;4.75;;
70549;SDS011;58101;48.658;2.328;2022-07-29T04:01:07;14.18;;;5.18;;
70549;SDS011;58101;48.658;2.328;2022-07-29T04:03:34;11.40;;;5.00;;
70549;SDS011;58101;48.658;2.328;2022-07-29T04:06:01;10.93;;;4.78;;
70549;SDS011;58101;48.658;2.328;2022-07-29T04:08:30;11.32;;;5.10;;
70549;SDS011;58101;48.658;2.328;2022-07-29T04:10:56;13.90;;;5.70;;
70549;SDS011;58101;48.658;2.328;2022-07-29T04:13:21;12.70;;;4.88;;
70549;SDS011;58101;48.658;2.328;2022-07-29T04:15:47;11.93;;;4.90;;
70549;SDS011;58101;48.658;2.328;2022-07-29T04:18:13;12.60;;;4.63;;
70549;SDS011;58101;48.658;2.328;2022-07-29T04:20:38;12.75;;;4.53;;
70549;SDS011;58101;48.658;2.328;2022-07-29T04:23:04;10.15;;;4.45;;
70549;SDS011;58101;48.658;2.328;2022-07-29T04:25:29;10.68;;;4.30;;
70549;SDS011;58101;48.658;2.328;2022-07-29T04:27:55;12.32;;;4.38;;
70549;SDS011;58101;48.658;2.328;2022-07-29T04:30:26;10.32;;;4.20;;
70549;SDS011;58101;48.658;2.328;2022-07-29T04:32:52;10.30;;;4.18;;
70549;SDS011;58101;48.658;2.328;2022-07-29T04:35:18;10.13;;;4.30;;
70549;SDS011;58101;48.658;2.328;2022-07-29T04:37:44;11.75;;;4.40;;
70549;SDS011;58101;48.658;2.328;2022-07-29T04:40:10;11.85;;;4.18;;
70549;SDS011;58101;48.658;2.328;2022-07-29T04:45:02;9.35;;;3.53;;
70549;SDS011;58101;48.658;2.328;2022-07-29T04:47:28;9.98;;;3.15;;
70549;SDS011;58101;48.658;2.328;2022-07-29T04:49:54;9.40;;;3.22;;
70549;SDS011;58101;48.658;2.328;2022-07-29T04:52:21;8.40;;;2.95;;
70549;SDS011;58101;48.658;2.328;2022-07-29T04:54:47;9.50;;;3.10;;
70549;SDS011;58101;48.658;2.328;2022-07-29T04:57:13;9.63;;;2.90;;
70549;SDS011;58101;48.658;2.328;2022-07-29T04:59:39;12.73;;;3.15;;
70549;SDS011;58101;48.658;2.328;2022-07-29T05:02:04;8.32;;;3.15;;
70549;SDS011;58101;48.658;2.328;2022-07-29T05:04:30;9.73;;;3.10;;
70549;SDS011;58101;48.658;2.328;2022-07-29T05:06:55;9.77;;;3.10;;
70549;SDS011;58101;48.658;2.328;2022-07-29T05:09:21;16.35;;;3.33;;
70549;SDS011;58101;48.658;2.328;2022-07-29T05:11:47;11.45;;;3.05;;
70549;SDS011;58101;48.658;2.328;2022-07-29T05:14:12;11.95;;;3.00;;
70549;SDS011;58101;48.658;2.328;2022-07-29T05:16:38;8.27;;;2.85;;
70549;SDS011;58101;48.658;2.328;2022-07-29T05:19:07;9.20;;;2.90;;
70549;SDS011;58101;48.658;2.328;2022-07-29T05:21:32;9.05;;;3.20;;
70549;SDS011;58101;48.658;2.328;2022-07-29T05:23:58;9.80;;;3.10;;
70549;SDS011;58101;48.658;2.328;2022-07-29T05:26:23;11.85;;;2.95;;
70549;SDS011;58101;48.658;2.328;2022-07-29T05:28:49;8.40;;;3.10;;
70549;SDS011;58101;48.658;2.328;2022-07-29T05:31:15;11.25;;;3.30;;
70549;SDS011;58101;48.658;2.328;2022-07-29T05:33:41;10.98;;;3.72;;
70549;SDS011;58101;48.658;2.328;2022-07-29T05:36:10;8.98;;;3.20;;
70549;SDS011;58101;48.658;2.328;2022-07-29T05:41:02;11.25;;;3.70;;
70549;SDS011;58101;48.658;2.328;2022-07-29T05:43:31;11.60;;;4.15;;
70549;SDS011;58101;48.658;2.328;2022-07-29T05:45:57;11.27;;;3.72;;
70549;SDS011;58101;48.658;2.328;2022-07-29T05:48:23;16.58;;;4.28;;
70549;SDS011;58101;48.658;2.328;2022-07-29T05:50:48;11.60;;;4.20;;
70549;SDS011;58101;48.658;2.328;2022-07-29T05:53:14;12.85;;;3.92;;
70549;SDS011;58101;48.658;2.328;2022-07-29T05:55:41;12.07;;;4.00;;
70549;SDS011;58101;48.658;2.328;2022-07-29T05:58:06;11.50;;;4.43;;
70549;SDS011;58101;48.658;2.328;2022-07-29T06:00:32;11.52;;;4.00;;
70549;SDS011;58101;48.658;2.328;2022-07-29T06:02:57;11.13;;;4.03;;
70549;SDS011;58101;48.658;2.328;2022-07-29T06:05:23;8.68;;;3.70;;
70549;SDS011;58101;48.658;2.328;2022-07-29T06:07:49;10.50;;;3.95;;
70549;SDS011;58101;48.658;2.328;2022-07-29T06:10:14;11.30;;;3.90;;
70549;SDS011;58101;48.658;2.328;2022-07-29T06:12:40;10.85;;;3.50;;
70549;SDS011;58101;48.658;2.328;2022-07-29T06:15:05;11.77;;;3.65;;
70549;SDS011;58101;48.658;2.328;2022-07-29T06:17:32;14.30;;;3.42;;
70549;SDS011;58101;48.658;2.328;2022-07-29T06:19:57;12.38;;;3.30;;
70549;SDS011;58101;48.658;2.328;2022-07-29T06:22:23;9.50;;;3.50;;
70549;SDS011;58101;48.658;2.328;2022-07-29T06:24:49;10.88;;;3.17;;
70549;SDS011;58101;48.658;2.328;2022-07-29T06:27:14;7.25;;;2.90;;
70549;SDS011;58101;48.658;2.328;2022-07-29T06:32:07;9.90;;;2.67;;
70549;SDS011;58101;48.658;2.328;2022-07-29T06:34:34;11.68;;;3.45;;
70549;SDS011;58101;48.658;2.328;2022-07-29T06:37:05;7.50;;;2.90;;
70549;SDS011;58101;48.658;2.328;2022-07-29T06:39:36;9.30;;;2.90;;
70549;SDS011;58101;48.658;2.328;2022-07-29T06:42:05;9.73;;;3.22;;
70549;SDS011;58101;48.658;2.328;2022-07-29T06:44:32;11.60;;;3.15;;
70549;SDS011;58101;48.658;2.328;2022-07-29T06:47:00;9.88;;;3.10;;
70549;SDS011;58101;48.658;2.328;2022-07-29T06:49:26;10.63;;;3.63;;
70549;SDS011;58101;48.658;2.328;2022-07-29T06:51:52;9.15;;;3.30;;
70549;SDS011;58101;48.658;2.328;2022-07-29T06:54:19;9.75;;;3.30;;
70549;SDS011;58101;48.658;2.328;2022-07-29T06:56:44;15.95;;;3.42;;
70549;SDS011;58101;48.658;2.328;2022-07-29T06:59:11;12.52;;;3.47;;
70549;SDS011;58101;48.658;2.328;2022-07-29T07:01:38;12.23;;;3.38;;
70549;SDS011;58101;48.658;2.328;2022-07-29T07:04:05;11.27;;;3.53;;
70549;SDS011;58101;48.658;2.328;2022-07-29T07:06:31;11.40;;;4.00;;
70549;SDS011;58101;48.658;2.328;2022-07-29T07:08:56;10.88;;;3.40;;
70549;SDS011;58101;48.658;2.328;2022-07-29T07:11:22;9.63;;;3.42;;
70549;SDS011;58101;48.658;2.328;2022-07-29T07:13:48;11.02;;;3.55;;
70549;SDS011;58101;48.658;2.328;2022-07-29T07:16:13;9.88;;;3.47;;
70549;SDS011;58101;48.658;2.328;2022-07-29T07:18:39;7.53;;;3.20;;
70549;SDS011;58101;48.658;2.328;2022-07-29T07:21:05;11.13;;;3.67;;
70549;SDS011;58101;48.658;2.328;2022-07-29T07:23:31;8.40;;;3.20;;
70549;SDS011;58101;48.658;2.328;2022-07-29T07:25:56;11.38;;;3.33;;
70549;SDS011;58101;48.658;2.328;2022-07-29T07:28:22;9.18;;;2.90;;
70549;SDS011;58101;48.658;2.328;2022-07-29T07:30:48;8.05;;;3.25;;
70549;SDS011;58101;48.658;2.328;2022-07-29T07:33:14;8.43;;;2.58;;
70549;SDS011;58101;48.658;2.328;2022-07-29T07:35:39;11.90;;;2.92;;
70549;SDS011;58101;48.658;2.328;2022-07-29T07:38:06;12.90;;;2.78;;
70549;SDS011;58101;48.658;2.328;2022-07-29T07:40:31;8.40;;;2.60;;
70549;SDS011;58101;48.658;2.328;2022-07-29T07:42:57;8.85;;;2.30;;
70549;SDS011;58101;48.658;2.328;2022-07-29T07:45:23;7.97;;;2.42;;
70549;SDS011;58101;48.658;2.328;2022-07-29T07:50:15;8.98;;;2.33;;
70549;SDS011;58101;48.658;2.328;2022-07-29T07:52:48;6.45;;;2.33;;
70549;SDS011;58101;48.658;2.328;2022-07-29T07:55:19;8.52;;;2.35;;
70549;SDS011;58101;48.658;2.328;2022-07-29T07:57:45;11.60;;;2.72;;
70549;SDS011;58101;48.658;2.328;2022-07-29T08:00:12;8.07;;;2.40;;
70549;SDS011;58101;48.658;2.328;2022-07-29T08:02:39;10.05;;;2.45;;
70549;SDS011;58101;48.658;2.328;2022-07-29T08:05:06;7.68;;;2.28;;
70549;SDS011;58101;48.658;2.328;2022-07-29T08:07:32;10.88;;;2.60;;
70549;SDS011;58101;48.658;2.328;2022-07-29T08:09:58;7.70;;;2.47;;
70549;SDS011;58101;48.658;2.328;2022-07-29T08:12:23;12.45;;;2.78;;
70549;SDS011;58101;48.658;2.328;2022-07-29T08:14:49;7.65;;;2.30;;
70549;SDS011;58101;48.658;2.328;2022-07-29T08:17:15;8.95;;;2.50;;
70549;SDS011;58101;48.658;2.328;2022-07-29T08:19:40;11.80;;;2.63;;
70549;SDS011;58101;48.658;2.328;2022-07-29T08:22:06;12.07;;;3.17;;
70549;SDS011;58101;48.658;2.328;2022-07-29T08:24:32;10.40;;;2.40;;
70549;SDS011;58101;48.658;2.328;2022-07-29T08:27:11;9.40;;;2.17;;
70549;SDS011;58101;48.658;2.328;2022-07-29T08:29:37;10.25;;;2.10;;
70549;SDS011;58101;48.658;2.328;2022-07-29T08:32:04;7.13;;;2.40;;
70549;SDS011;58101;48.658;2.328;2022-07-29T08:34:30;8.20;;;2.50;;
70549;SDS011;58101;48.658;2.328;2022-07-29T08:36:56;8.48;;;2.40;;
70549;SDS011;58101;48.658;2.328;2022-07-29T08:39:22;11.45;;;2.22;;
70549;SDS011;58101;48.658;2.328;2022-07-29T08:41:48;7.70;;;2.42;;
70549;SDS011;58101;48.658;2.328;2022-07-29T08:44:15;8.13;;;2.10;;
70549;SDS011;58101;48.658;2.328;2022-07-29T08:46:42;13.18;;;2.67;;
70549;SDS011;58101;48.658;2.328;2022-07-29T08:49:08;7.38;;;2.20;;
70549;SDS011;58101;48.658;2.328;2022-07-29T08:54:00;9.77;;;2.15;;
70549;SDS011;58101;48.658;2.328;2022-07-29T08:56:27;9.68;;;2.50;;
70549;SDS011;58101;48.658;2.328;2022-07-29T08:58:53;8.48;;;2.00;;
70549;SDS011;58101;48.658;2.328;2022-07-29T09:01:23;7.88;;;1.80;;
70549;SDS011;58101;48.658;2.328;2022-07-29T09:03:50;8.70;;;2.00;;
70549;SDS011;58101;48.658;2.328;2022-07-29T09:06:20;7.22;;;1.73;;
70549;SDS011;58101;48.658;2.328;2022-07-29T09:08:47;8.77;;;1.77;;
70549;SDS011;58101;48.658;2.328;2022-07-29T09:11:13;9.80;;;1.80;;
70549;SDS011;58101;48.658;2.328;2022-07-29T09:13:40;10.43;;;1.90;;
70549;SDS011;58101;48.658;2.328;2022-07-29T09:16:06;6.63;;;1.70;;
70549;SDS011;58101;48.658;2.328;2022-07-29T09:21:05;9.18;;;1.63;;
70549;SDS011;58101;48.658;2.328;2022-07-29T09:24:09;8.35;;;1.70;;
70549;SDS011;58101;48.658;2.328;2022-07-29T09:26:40;9.55;;;1.80;;
70549;SDS011;58101;48.658;2.328;2022-07-29T09:29:17;6.72;;;1.80;;
70549;SDS011;58101;48.658;2.328;2022-07-29T09:31:48;6.78;;;1.77;;
70549;SDS011;58101;48.658;2.328;2022-07-29T09:34:16;6.00;;;1.67;;
70549;SDS011;58101;48.658;2.328;2022-07-29T09:36:47;7.22;;;1.70;;
70549;SDS011;58101;48.658;2.328;2022-07-29T09:39:14;6.38;;;1.83;;
70549;SDS011;58101;48.658;2.328;2022-07-29T09:41:45;6.70;;;1.73;;
70549;SDS011;58101;48.658;2.328;2022-07-29T09:44:12;12.27;;;2.00;;
70549;SDS011;58101;48.658;2.328;2022-07-29T09:47:20;10.20;;;2.22;;
70549;SDS011;58101;48.658;2.328;2022-07-29T09:49:31;8.18;;;1.90;;
70549;SDS011;58101;48.658;2.328;2022-07-29T09:52:04;9.57;;;1.70;;
70549;SDS011;58101;48.658;2.328;2022-07-29T09:54:31;7.75;;;1.63;;
70549;SDS011;58101;48.658;2.328;2022-07-29T09:57:01;11.77;;;1.95;;
70549;SDS011;58101;48.658;2.328;2022-07-29T09:59:31;7.60;;;1.88;;
70549;SDS011;58101;48.658;2.328;2022-07-29T10:01:58;8.85;;;1.60;;
70549;SDS011;58101;48.658;2.328;2022-07-29T10:04:24;10.55;;;1.48;;
70549;SDS011;58101;48.658;2.328;2022-07-29T10:07:02;7.63;;;1.60;;
70549;SDS011;58101;48.658;2.328;2022-07-29T10:09:29;7.72;;;1.63;;
70549;SDS011;58101;48.658;2.328;2022-07-29T10:14:31;7.07;;;1.63;;
70549;SDS011;58101;48.658;2.328;2022-07-29T10:16:59;7.43;;;1.80;;
70549;SDS011;58101;48.658;2.328;2022-07-29T10:19:26;8.95;;;1.55;;
70549;SDS011;58101;48.658;2.328;2022-07-29T10:21:54;8.65;;;1.77;;
70549;SDS011;58101;48.658;2.328;2022-07-29T10:24:21;8.75;;;1.52;;
70549;SDS011;58101;48.658;2.328;2022-07-29T10:26:46;7.05;;;1.90;;
70549;SDS011;58101;48.658;2.328;2022-07-29T10:29:13;7.95;;;1.50;;
70549;SDS011;58101;48.658;2.328;2022-07-29T10:37:23;11.98;;;1.85;;
70549;SDS011;58101;48.658;2.328;2022-07-29T10:40:14;10.82;;;1.70;;
70549;SDS011;58101;48.658;2.328;2022-07-29T10:42:59;7.15;;;1.85;;
70549;SDS011;58101;48.658;2.328;2022-07-29T10:45:42;8.13;;;1.50;;
70549;SDS011;58101;48.658;2.328;2022-07-29T10:48:10;7.35;;;1.60;;
70549;SDS011;58101;48.658;2.328;2022-07-29T10:56:28;7.05;;;1.35;;
70549;SDS011;58101;48.658;2.328;2022-07-29T11:01:45;5.88;;;1.40;;
70549;SDS011;58101;48.658;2.328;2022-07-29T11:04:12;6.15;;;1.30;;
70549;SDS011;58101;48.658;2.328;2022-07-29T11:09:25;6.57;;;1.50;;
70549;SDS011;58101;48.658;2.328;2022-07-29T11:11:51;8.70;;;1.58;;
70549;SDS011;58101;48.658;2.328;2022-07-29T11:14:18;6.50;;;1.38;;
70549;SDS011;58101;48.658;2.328;2022-07-29T11:17:04;5.70;;;1.40;;
70549;SDS011;58101;48.658;2.328;2022-07-29T11:19:32;4.85;;;1.40;;
70549;SDS011;58101;48.658;2.328;2022-07-29T11:22:10;7.20;;;1.50;;
70549;SDS011;58101;48.658;2.328;2022-07-29T11:25:13;5.95;;;1.40;;
70549;SDS011;58101;48.658;2.328;2022-07-29T11:27:39;7.78;;;1.45;;
70549;SDS011;58101;48.658;2.328;2022-07-29T11:30:05;5.32;;;1.40;;
70549;SDS011;58101;48.658;2.328;2022-07-29T11:32:36;5.70;;;1.40;;
70549;SDS011;58101;48.658;2.328;2022-07-29T11:35:10;6.93;;;1.38;;
70549;SDS011;58101;48.658;2.328;2022-07-29T11:37:36;9.48;;;1.30;;
70549;SDS011;58101;48.658;2.328;2022-07-29T11:47:32;5.88;;;1.30;;
70549;SDS011;58101;48.658;2.328;2022-07-29T11:50:01;5.55;;;1.30;;
70549;SDS011;58101;48.658;2.328;2022-07-29T11:52:32;5.95;;;1.40;;
70549;SDS011;58101;48.658;2.328;2022-07-29T11:55:10;5.88;;;1.40;;
70549;SDS011;58101;48.658;2.328;2022-07-29T11:57:44;5.93;;;1.50;;
70549;SDS011;58101;48.658;2.328;2022-07-29T12:00:12;5.55;;;1.45;;
70549;SDS011;58101;48.658;2.328;2022-07-29T12:03:08;5.82;;;1.30;;
70549;SDS011;58101;48.658;2.328;2022-07-29T12:05:38;4.82;;;1.38;;
70549;SDS011;58101;48.658;2.328;2022-07-29T12:08:15;5.18;;;1.48;;
70549;SDS011;58101;48.658;2.328;2022-07-29T12:10:46;6.05;;;1.33;;
70549;SDS011;58101;48.658;2.328;2022-07-29T12:13:12;4.22;;;1.17;;
70549;SDS011;58101;48.658;2.328;2022-07-29T12:15:39;6.32;;;1.42;;
70549;SDS011;58101;48.658;2.328;2022-07-29T12:18:09;4.47;;;1.30;;
70549;SDS011;58101;48.658;2.328;2022-07-29T12:20:35;6.60;;;1.40;;
70549;SDS011;58101;48.658;2.328;2022-07-29T12:23:04;6.18;;;1.42;;
70549;SDS011;58101;48.658;2.328;2022-07-29T12:25:33;5.28;;;1.30;;
70549;SDS011;58101;48.658;2.328;2022-07-29T12:28:01;4.90;;;1.40;;
70549;SDS011;58101;48.658;2.328;2022-07-29T12:30:35;6.15;;;1.35;;
70549;SDS011;58101;48.658;2.328;2022-07-29T12:33:13;5.25;;;1.20;;
70549;SDS011;58101;48.658;2.328;2022-07-29T12:38:11;6.78;;;1.20;;
70549;SDS011;58101;48.658;2.328;2022-07-29T12:40:38;5.65;;;1.23;;
70549;SDS011;58101;48.658;2.328;2022-07-29T12:45:44;5.20;;;1.35;;
70549;SDS011;58101;48.658;2.328;2022-07-29T12:48:15;5.60;;;1.17;;
70549;SDS011;58101;48.658;2.328;2022-07-29T12:50:57;5.22;;;1.50;;
70549;SDS011;58101;48.658;2.328;2022-07-29T12:53:25;4.57;;;1.30;;
70549;SDS011;58101;48.658;2.328;2022-07-29T12:55:52;4.32;;;1.10;;
70549;SDS011;58101;48.658;2.328;2022-07-29T12:58:32;4.57;;;1.20;;
70549;SDS011;58101;48.658;2.328;2022-07-29T13:01:01;5.03;;;1.20;;
70549;SDS011;58101;48.658;2.328;2022-07-29T13:03:40;5.50;;;1.30;;
70549;SDS011;58101;48.658;2.328;2022-07-29T13:09:05;5.55;;;1.30;;
70549;SDS011;58101;48.658;2.328;2022-07-29T13:11:36;6.38;;;1.50;;
70549;SDS011;58101;48.658;2.328;2022-07-29T13:14:04;9.75;;;1.52;;
70549;SDS011;58101;48.658;2.328;2022-07-29T13:16:34;6.57;;;1.50;;
70549;SDS011;58101;48.658;2.328;2022-07-29T13:19:04;5.70;;;1.30;;
70549;SDS011;58101;48.658;2.328;2022-07-29T13:21:37;8.30;;;1.60;;
70549;SDS011;58101;48.658;2.328;2022-07-29T13:24:04;6.57;;;1.63;;
70549;SDS011;58101;48.658;2.328;2022-07-29T13:26:31;8.88;;;1.50;;
70549;SDS011;58101;48.658;2.328;2022-07-29T13:28:57;7.35;;;1.52;;
70549;SDS011;58101;48.658;2.328;2022-07-29T13:31:22;7.88;;;1.70;;
70549;SDS011;58101;48.658;2.328;2022-07-29T13:33:48;5.22;;;1.40;;
70549;SDS011;58101;48.658;2.328;2022-07-29T13:36:14;7.07;;;1.50;;
70549;SDS011;58101;48.658;2.328;2022-07-29T13:38:40;6.85;;;1.45;;
70549;SDS011;58101;48.658;2.328;2022-07-29T13:41:05;5.50;;;1.30;;
70549;SDS011;58101;48.658;2.328;2022-07-29T13:43:31;7.90;;;1.50;;
70549;SDS011;58101;48.658;2.328;2022-07-29T13:45:57;5.70;;;1.60;;
70549;SDS011;58101;48.658;2.328;2022-07-29T13:48:22;4.95;;;1.38;;
70549;SDS011;58101;48.658;2.328;2022-07-29T13:50:48;7.60;;;1.60;;
70549;SDS011;58101;48.658;2.328;2022-07-29T13:53:13;5.20;;;1.42;;
70549;SDS011;58101;48.658;2.328;2022-07-29T13:55:39;5.10;;;1.40;;
70549;SDS011;58101;48.658;2.328;2022-07-29T13:58:05;7.45;;;1.60;;
70549;SDS011;58101;48.658;2.328;2022-07-29T14:00:30;7.55;;;1.70;;
70549;SDS011;58101;48.658;2.328;2022-07-29T14:02:56;7.20;;;1.70;;
70549;SDS011;58101;48.658;2.328;2022-07-29T14:05:22;6.97;;;1.55;;
70549;SDS011;58101;48.658;2.328;2022-07-29T14:07:48;6.90;;;1.42;;
70549;SDS011;58101;48.658;2.328;2022-07-29T14:10:13;4.95;;;1.42;;
70549;SDS011;58101;48.658;2.328;2022-07-29T14:12:39;5.68;;;1.30;;
70549;SDS011;58101;48.658;2.328;2022-07-29T14:15:06;9.57;;;1.60;;
70549;SDS011;58101;48.658;2.328;2022-07-29T14:17:32;7.07;;;1.38;;
70549;SDS011;58101;48.658;2.328;2022-07-29T14:19:58;7.22;;;1.60;;
70549;SDS011;58101;48.658;2.328;2022-07-29T14:22:24;7.63;;;1.42;;
70549;SDS011;58101;48.658;2.328;2022-07-29T14:24:50;5.28;;;1.35;;
70549;SDS011;58101;48.658;2.328;2022-07-29T14:27:16;6.43;;;1.33;;
70549;SDS011;58101;48.658;2.328;2022-07-29T14:29:41;6.05;;;1.50;;
70549;SDS011;58101;48.658;2.328;2022-07-29T14:32:07;5.65;;;1.40;;
70549;SDS011;58101;48.658;2.328;2022-07-29T14:34:35;6.80;;;1.45;;
70549;SDS011;58101;48.658;2.328;2022-07-29T14:37:01;5.32;;;1.48;;
70549;SDS011;58101;48.658;2.328;2022-07-29T14:39:30;4.75;;;1.50;;
70549;SDS011;58101;48.658;2.328;2022-07-29T14:41:56;7.53;;;1.30;;
70549;SDS011;58101;48.658;2.328;2022-07-29T14:44:21;5.93;;;1.50;;
70549;SDS011;58101;48.658;2.328;2022-07-29T14:46:47;5.63;;;1.60;;
70549;SDS011;58101;48.658;2.328;2022-07-29T14:49:13;4.97;;;1.48;;
70549;SDS011;58101;48.658;2.328;2022-07-29T14:51:38;5.35;;;1.40;;
70549;SDS011;58101;48.658;2.328;2022-07-29T14:54:04;6.03;;;1.40;;
70549;SDS011;58101;48.658;2.328;2022-07-29T14:56:30;5.25;;;1.30;;
70549;SDS011;58101;48.658;2.328;2022-07-29T14:58:56;5.72;;;1.40;;
70549;SDS011;58101;48.658;2.328;2022-07-29T15:01:22;6.53;;;1.38;;
70549;SDS011;58101;48.658;2.328;2022-07-29T15:03:48;6.50;;;1.38;;
70549;SDS011;58101;48.658;2.328;2022-07-29T15:06:15;8.90;;;1.38;;
70549;SDS011;58101;48.658;2.328;2022-07-29T15:08:56;5.47;;;1.52;;
70549;SDS011;58101;48.658;2.328;2022-07-29T15:11:21;8.52;;;1.63;;
70549;SDS011;58101;48.658;2.328;2022-07-29T15:13:47;8.48;;;1.50;;
70549;SDS011;58101;48.658;2.328;2022-07-29T15:16:13;6.45;;;1.42;;
70549;SDS011;58101;48.658;2.328;2022-07-29T15:18:38;5.35;;;1.58;;
70549;SDS011;58101;48.658;2.328;2022-07-29T15:21:04;8.32;;;1.40;;
70549;SDS011;58101;48.658;2.328;2022-07-29T15:23:32;5.75;;;1.40;;
70549;SDS011;58101;48.658;2.328;2022-07-29T15:26:01;5.20;;;1.30;;
70549;SDS011;58101;48.658;2.328;2022-07-29T15:28:33;6.45;;;1.42;;
70549;SDS011;58101;48.658;2.328;2022-07-29T15:30:59;5.72;;;1.40;;
70549;SDS011;58101;48.658;2.328;2022-07-29T15:33:25;6.35;;;1.20;;
70549;SDS011;58101;48.658;2.328;2022-07-29T15:35:51;4.70;;;1.38;;
70549;SDS011;58101;48.658;2.328;2022-07-29T15:38:16;4.70;;;1.33;;
70549;SDS011;58101;48.658;2.328;2022-07-29T15:40:42;6.03;;;1.40;;
70549;SDS011;58101;48.658;2.328;2022-07-29T15:43:09;5.45;;;1.50;;
70549;SDS011;58101;48.658;2.328;2022-07-29T15:45:38;6.10;;;1.48;;
70549;SDS011;58101;48.658;2.328;2022-07-29T15:48:05;6.25;;;1.40;;
70549;SDS011;58101;48.658;2.328;2022-07-29T15:50:32;5.80;;;1.50;;
70549;SDS011;58101;48.658;2.328;2022-07-29T15:52:58;6.05;;;1.30;;
70549;SDS011;58101;48.658;2.328;2022-07-29T15:55:24;6.97;;;1.30;;
70549;SDS011;58101;48.658;2.328;2022-07-29T15:57:49;6.35;;;1.50;;
70549;SDS011;58101;48.658;2.328;2022-07-29T16:00:15;5.97;;;1.38;;